sensor_id;sensor_type;location;lat;lon;timestamp;pressure;altitude;pressure_sealevel;temperature;humidity
63285;BME280;49409;55.708;37.522;2022-09-03T00:01:26;99820.97;;;12.22;53.68
63285;BME280;49409;55.708;37.522;2022-09-03T00:04:01;99846.97;;;12.24;54.08
63285;BME280;49409;55.708;37.522;2022-09-03T00:06:38;99851.22;;;12.29;53.81
63285;BME280;49409;55.708;37.522;2022-09-03T00:09:21;99821.28;;;12.00;54.34
63285;BME280;49409;55.708;37.522;2022-09-03T00:12:08;99849.41;;;12.19;53.87
63285;BME280;49409;55.708;37.522;2022-09-03T00:15:04;99861.91;;;12.27;53.67
63285;BME280;49409;55.708;37.522;2022-09-03T00:20:18;99857.78;;;12.12;53.61
63285;BME280;49409;55.708;37.522;2022-09-03T00:22:47;99879.84;;;12.12;54.25
63285;BME280;49409;55.708;37.522;2022-09-03T00:25:20;99874.69;;;12.14;54.19
63285;BME280;49409;55.708;37.522;2022-09-03T00:27:50;99881.06;;;12.10;54.28
63285;BME280;49409;55.708;37.522;2022-09-03T00:30:18;99850.47;;;11.98;54.30
63285;BME280;49409;55.708;37.522;2022-09-03T00:35:26;99891.34;;;12.06;54.35
63285;BME280;49409;55.708;37.522;2022-09-03T00:37:54;99887.47;;;12.00;54.33
63285;BME280;49409;55.708;37.522;2022-09-03T00:51:49;99898.97;;;12.26;54.10
63285;BME280;49409;55.708;37.522;2022-09-03T01:00:09;99905.41;;;12.16;54.22
63285;BME280;49409;55.708;37.522;2022-09-03T01:24:37;99915.72;;;12.12;54.32
63285;BME280;49409;55.708;37.522;2022-09-03T01:27:31;99896.97;;;11.99;54.54
63285;BME280;49409;55.708;37.522;2022-09-03T01:32:49;99887.59;;;11.93;54.03
63285;BME280;49409;55.708;37.522;2022-09-03T01:48:52;99934.00;;;11.98;54.50
63285;BME280;49409;55.708;37.522;2022-09-03T01:51:23;99937.69;;;11.84;54.84
63285;BME280;49409;55.708;37.522;2022-09-03T01:54:30;99939.97;;;11.93;54.57
63285;BME280;49409;55.708;37.522;2022-09-03T02:00:17;99944.66;;;11.96;53.78
63285;BME280;49409;55.708;37.522;2022-09-03T02:02:46;99943.63;;;11.83;54.45
63285;BME280;49409;55.708;37.522;2022-09-03T02:05:22;99955.84;;;11.82;54.64
63285;BME280;49409;55.708;37.522;2022-09-03T02:08:05;99942.84;;;11.79;54.67
63285;BME280;49409;55.708;37.522;2022-09-03T02:10:42;99965.69;;;11.83;54.87
63285;BME280;49409;55.708;37.522;2022-09-03T02:13:14;99957.06;;;11.77;54.65
63285;BME280;49409;55.708;37.522;2022-09-03T02:15:44;99967.31;;;11.77;54.69
63285;BME280;49409;55.708;37.522;2022-09-03T02:18:16;99958.00;;;11.63;55.15
63285;BME280;49409;55.708;37.522;2022-09-03T02:20:43;99957.19;;;11.63;54.74
63285;BME280;49409;55.708;37.522;2022-09-03T02:23:11;99948.63;;;11.57;54.87
63285;BME280;49409;55.708;37.522;2022-09-03T02:25:40;99940.81;;;11.48;54.83
63285;BME280;49409;55.708;37.522;2022-09-03T02:28:07;99969.06;;;11.60;55.11
63285;BME280;49409;55.708;37.522;2022-09-03T02:30:33;99964.34;;;11.57;55.24
63285;BME280;49409;55.708;37.522;2022-09-03T02:32:59;99929.53;;;11.36;55.15
63285;BME280;49409;55.708;37.522;2022-09-03T02:35:26;99975.28;;;11.67;54.94
63285;BME280;49409;55.708;37.522;2022-09-03T02:37:51;99969.03;;;11.63;54.70
63285;BME280;49409;55.708;37.522;2022-09-03T02:40:17;99969.78;;;11.67;55.05
63285;BME280;49409;55.708;37.522;2022-09-03T02:42:43;99968.19;;;11.66;54.77
63285;BME280;49409;55.708;37.522;2022-09-03T02:45:25;99957.25;;;11.59;54.55
63285;BME280;49409;55.708;37.522;2022-09-03T02:47:55;99961.94;;;11.62;54.72
63285;BME280;49409;55.708;37.522;2022-09-03T02:50:22;99992.53;;;11.75;54.44
63285;BME280;49409;55.708;37.522;2022-09-03T02:52:48;99986.66;;;11.73;54.56
63285;BME280;49409;55.708;37.522;2022-09-03T02:55:13;99983.09;;;11.73;54.50
63285;BME280;49409;55.708;37.522;2022-09-03T02:57:40;99990.63;;;11.68;54.77
63285;BME280;49409;55.708;37.522;2022-09-03T03:00:06;99983.94;;;11.69;54.80
63285;BME280;49409;55.708;37.522;2022-09-03T03:02:32;99971.41;;;11.61;54.49
63285;BME280;49409;55.708;37.522;2022-09-03T03:04:58;99979.59;;;11.68;54.78
63285;BME280;49409;55.708;37.522;2022-09-03T03:07:23;99972.19;;;11.62;54.66
63285;BME280;49409;55.708;37.522;2022-09-03T03:09:50;99994.13;;;11.73;54.52
63285;BME280;49409;55.708;37.522;2022-09-03T03:12:15;99995.34;;;11.71;55.03
63285;BME280;49409;55.708;37.522;2022-09-03T03:14:42;99989.41;;;11.73;54.77
63285;BME280;49409;55.708;37.522;2022-09-03T03:17:08;100002.34;;;11.80;54.45
63285;BME280;49409;55.708;37.522;2022-09-03T03:19:34;100006.59;;;11.84;54.48
63285;BME280;49409;55.708;37.522;2022-09-03T03:21:59;100002.28;;;11.87;54.56
63285;BME280;49409;55.708;37.522;2022-09-03T03:24:25;99989.34;;;11.77;54.75
63285;BME280;49409;55.708;37.522;2022-09-03T03:26:54;100005.84;;;11.84;54.94
63285;BME280;49409;55.708;37.522;2022-09-03T03:29:21;99981.97;;;11.66;54.47
63285;BME280;49409;55.708;37.522;2022-09-03T03:31:47;99998.00;;;11.79;54.50
63285;BME280;49409;55.708;37.522;2022-09-03T03:34:13;100007.28;;;11.99;55.18
63285;BME280;49409;55.708;37.522;2022-09-03T03:36:38;100016.44;;;12.27;54.73
63285;BME280;49409;55.708;37.522;2022-09-03T03:39:04;100011.38;;;12.53;54.13
63285;BME280;49409;55.708;37.522;2022-09-03T03:41:34;100018.88;;;12.79;54.06
63285;BME280;49409;55.708;37.522;2022-09-03T03:44:03;100000.66;;;12.85;53.77
63285;BME280;49409;55.708;37.522;2022-09-03T03:46:31;100004.94;;;13.17;53.23
63285;BME280;49409;55.708;37.522;2022-09-03T03:48:57;99997.97;;;13.33;52.55
63285;BME280;49409;55.708;37.522;2022-09-03T03:51:24;100015.41;;;13.53;52.41
63285;BME280;49409;55.708;37.522;2022-09-03T03:53:55;100007.94;;;13.74;52.47
63285;BME280;49409;55.708;37.522;2022-09-03T03:56:22;100000.59;;;13.87;51.39
63285;BME280;49409;55.708;37.522;2022-09-03T03:58:48;100010.38;;;14.12;50.95
63285;BME280;49409;55.708;37.522;2022-09-03T04:01:19;100014.66;;;14.36;50.70
63285;BME280;49409;55.708;37.522;2022-09-03T04:03:45;99997.34;;;14.32;50.07
63285;BME280;49409;55.708;37.522;2022-09-03T04:06:13;100030.47;;;14.56;50.20
63285;BME280;49409;55.708;37.522;2022-09-03T04:08:40;100026.84;;;14.59;50.09
63285;BME280;49409;55.708;37.522;2022-09-03T04:11:08;100025.69;;;14.76;49.76
63285;BME280;49409;55.708;37.522;2022-09-03T04:13:36;100010.47;;;14.84;49.58
63285;BME280;49409;55.708;37.522;2022-09-03T04:16:07;100005.31;;;15.03;49.22
63285;BME280;49409;55.708;37.522;2022-09-03T04:18:35;100015.88;;;15.24;48.49
63285;BME280;49409;55.708;37.522;2022-09-03T04:21:02;100033.56;;;15.47;48.11
63285;BME280;49409;55.708;37.522;2022-09-03T04:23:32;100019.34;;;15.45;47.94
63285;BME280;49409;55.708;37.522;2022-09-03T04:25:59;100026.59;;;15.55;47.36
63285;BME280;49409;55.708;37.522;2022-09-03T04:28:25;100043.59;;;15.57;46.86
63285;BME280;49409;55.708;37.522;2022-09-03T04:30:51;100034.94;;;15.39;47.30
63285;BME280;49409;55.708;37.522;2022-09-03T04:33:16;100043.06;;;15.46;47.18
63285;BME280;49409;55.708;37.522;2022-09-03T04:35:42;100020.03;;;15.49;47.43
63285;BME280;49409;55.708;37.522;2022-09-03T04:38:08;100043.59;;;15.74;46.81
63285;BME280;49409;55.708;37.522;2022-09-03T04:40:33;100046.19;;;15.81;47.00
63285;BME280;49409;55.708;37.522;2022-09-03T04:42:59;100030.66;;;15.67;46.66
63285;BME280;49409;55.708;37.522;2022-09-03T04:45:25;100051.41;;;15.62;46.93
63285;BME280;49409;55.708;37.522;2022-09-03T04:47:59;100030.84;;;15.60;47.40
63285;BME280;49409;55.708;37.522;2022-09-03T04:50:25;100042.38;;;15.75;47.24
63285;BME280;49409;55.708;37.522;2022-09-03T04:52:53;100045.13;;;15.91;46.86
63285;BME280;49409;55.708;37.522;2022-09-03T04:55:21;100043.19;;;16.04;46.15
63285;BME280;49409;55.708;37.522;2022-09-03T04:57:46;100035.03;;;16.14;46.12
63285;BME280;49409;55.708;37.522;2022-09-03T05:00:12;100022.69;;;16.15;45.67
63285;BME280;49409;55.708;37.522;2022-09-03T05:02:38;100041.25;;;16.18;45.69
63285;BME280;49409;55.708;37.522;2022-09-03T05:05:03;100038.47;;;16.18;46.15
63285;BME280;49409;55.708;37.522;2022-09-03T05:07:29;100044.63;;;16.38;45.63
63285;BME280;49409;55.708;37.522;2022-09-03T05:10:05;100044.34;;;16.49;45.59
63285;BME280;49409;55.708;37.522;2022-09-03T05:12:31;100025.13;;;16.55;45.43
63285;BME280;49409;55.708;37.522;2022-09-03T05:14:57;100054.09;;;16.83;45.23
63285;BME280;49409;55.708;37.522;2022-09-03T05:17:25;100043.22;;;16.89;44.87
63285;BME280;49409;55.708;37.522;2022-09-03T05:19:50;100051.31;;;16.96;44.58
63285;BME280;49409;55.708;37.522;2022-09-03T05:22:16;100047.09;;;16.91;44.26
63285;BME280;49409;55.708;37.522;2022-09-03T05:24:46;100064.88;;;16.94;44.51
63285;BME280;49409;55.708;37.522;2022-09-03T05:27:13;100058.09;;;16.95;45.03
63285;BME280;49409;55.708;37.522;2022-09-03T05:29:44;100063.44;;;17.02;44.18
63285;BME280;49409;55.708;37.522;2022-09-03T05:32:10;100056.22;;;17.04;44.96
63285;BME280;49409;55.708;37.522;2022-09-03T05:34:41;100064.44;;;17.21;44.41
63285;BME280;49409;55.708;37.522;2022-09-03T05:37:07;100076.00;;;17.19;44.36
63285;BME280;49409;55.708;37.522;2022-09-03T05:39:33;100068.31;;;17.23;44.40
63285;BME280;49409;55.708;37.522;2022-09-03T05:41:58;100059.31;;;17.32;44.18
63285;BME280;49409;55.708;37.522;2022-09-03T05:44:24;100060.53;;;17.44;44.53
63285;BME280;49409;55.708;37.522;2022-09-03T05:46:50;100084.56;;;17.63;43.92
63285;BME280;49409;55.708;37.522;2022-09-03T05:49:16;100043.03;;;17.43;42.67
63285;BME280;49409;55.708;37.522;2022-09-03T05:51:42;100070.75;;;17.47;43.92
63285;BME280;49409;55.708;37.522;2022-09-03T05:54:08;100074.09;;;17.55;43.97
63285;BME280;49409;55.708;37.522;2022-09-03T05:56:36;100070.09;;;17.43;43.80
63285;BME280;49409;55.708;37.522;2022-09-03T05:59:05;100085.03;;;17.36;43.31
63285;BME280;49409;55.708;37.522;2022-09-03T06:01:33;100080.34;;;17.20;44.21
63285;BME280;49409;55.708;37.522;2022-09-03T06:04:01;100066.34;;;17.11;43.69
63285;BME280;49409;55.708;37.522;2022-09-03T06:06:30;100082.22;;;17.23;43.62
63285;BME280;49409;55.708;37.522;2022-09-03T06:09:02;100091.03;;;17.35;43.14
63285;BME280;49409;55.708;37.522;2022-09-03T06:11:28;100074.78;;;17.33;43.01
63285;BME280;49409;55.708;37.522;2022-09-03T06:13:55;100096.38;;;17.42;42.87
63285;BME280;49409;55.708;37.522;2022-09-03T06:16:22;100086.34;;;17.32;42.68
63285;BME280;49409;55.708;37.522;2022-09-03T06:18:48;100089.56;;;17.43;42.88
63285;BME280;49409;55.708;37.522;2022-09-03T06:21:14;100084.91;;;17.40;43.10
63285;BME280;49409;55.708;37.522;2022-09-03T06:23:40;100078.44;;;17.43;42.87
63285;BME280;49409;55.708;37.522;2022-09-03T06:26:11;100084.78;;;17.56;42.92
63285;BME280;49409;55.708;37.522;2022-09-03T06:28:39;100081.28;;;17.78;42.82
63285;BME280;49409;55.708;37.522;2022-09-03T06:31:07;100079.41;;;17.88;41.87
63285;BME280;49409;55.708;37.522;2022-09-03T06:33:35;100098.59;;;18.08;42.19
63285;BME280;49409;55.708;37.522;2022-09-03T06:36:03;100097.13;;;18.16;41.33
63285;BME280;49409;55.708;37.522;2022-09-03T06:38:30;100086.41;;;18.14;41.22
63285;BME280;49409;55.708;37.522;2022-09-03T06:40:58;100106.72;;;18.15;41.55
63285;BME280;49409;55.708;37.522;2022-09-03T06:43:39;100093.63;;;18.24;41.36
63285;BME280;49409;55.708;37.522;2022-09-03T06:46:19;100109.19;;;18.35;41.11
63285;BME280;49409;55.708;37.522;2022-09-03T06:48:45;100078.59;;;18.22;40.28
63285;BME280;49409;55.708;37.522;2022-09-03T06:51:16;100103.09;;;18.49;40.16
63285;BME280;49409;55.708;37.522;2022-09-03T06:53:48;100100.72;;;18.38;39.78
63285;BME280;49409;55.708;37.522;2022-09-03T06:56:16;100098.63;;;18.52;39.93
63285;BME280;49409;55.708;37.522;2022-09-03T06:58:46;100096.34;;;18.37;39.71
63285;BME280;49409;55.708;37.522;2022-09-03T07:01:16;100106.59;;;18.40;39.79
63285;BME280;49409;55.708;37.522;2022-09-03T07:03:45;100105.16;;;18.36;40.21
63285;BME280;49409;55.708;37.522;2022-09-03T07:06:13;100114.56;;;18.29;39.83
63285;BME280;49409;55.708;37.522;2022-09-03T07:08:39;100105.88;;;18.27;39.81
63285;BME280;49409;55.708;37.522;2022-09-03T07:11:09;100113.31;;;18.30;40.19
63285;BME280;49409;55.708;37.522;2022-09-03T07:13:35;100100.47;;;18.11;39.20
63285;BME280;49409;55.708;37.522;2022-09-03T07:16:04;100116.28;;;18.14;39.31
63285;BME280;49409;55.708;37.522;2022-09-03T07:18:30;100108.59;;;18.18;39.55
63285;BME280;49409;55.708;37.522;2022-09-03T07:21:02;100092.78;;;18.15;39.87
63285;BME280;49409;55.708;37.522;2022-09-03T07:23:29;100108.59;;;18.40;40.01
63285;BME280;49409;55.708;37.522;2022-09-03T07:25:57;100109.25;;;18.66;39.48
63285;BME280;49409;55.708;37.522;2022-09-03T07:28:23;100097.38;;;18.75;38.38
63285;BME280;49409;55.708;37.522;2022-09-03T07:30:50;100108.41;;;18.78;38.42
63285;BME280;49409;55.708;37.522;2022-09-03T07:33:16;100123.34;;;18.85;38.79
63285;BME280;49409;55.708;37.522;2022-09-03T07:35:43;100095.13;;;18.82;38.62
63285;BME280;49409;55.708;37.522;2022-09-03T07:38:08;100119.41;;;19.04;38.01
63285;BME280;49409;55.708;37.522;2022-09-03T07:40:34;100107.00;;;18.96;37.73
63285;BME280;49409;55.708;37.522;2022-09-03T07:43:00;100108.91;;;19.08;37.83
63285;BME280;49409;55.708;37.522;2022-09-03T07:45:28;100115.31;;;19.18;38.18
63285;BME280;49409;55.708;37.522;2022-09-03T07:47:55;100102.72;;;19.13;37.54
63285;BME280;49409;55.708;37.522;2022-09-03T07:50:21;100107.63;;;19.00;38.80
63285;BME280;49409;55.708;37.522;2022-09-03T07:52:46;100097.09;;;19.04;37.52
63285;BME280;49409;55.708;37.522;2022-09-03T07:55:12;100106.44;;;19.10;37.82
63285;BME280;49409;55.708;37.522;2022-09-03T07:57:38;100116.56;;;18.95;37.97
63285;BME280;49409;55.708;37.522;2022-09-03T08:00:05;100086.63;;;18.86;38.25
63285;BME280;49409;55.708;37.522;2022-09-03T08:02:34;100102.34;;;19.33;38.24
63285;BME280;49409;55.708;37.522;2022-09-03T08:04:59;100093.25;;;19.51;36.00
63285;BME280;49409;55.708;37.522;2022-09-03T08:07:27;100085.53;;;19.15;36.50
63285;BME280;49409;55.708;37.522;2022-09-03T08:09:52;100100.00;;;19.32;36.75
63285;BME280;49409;55.708;37.522;2022-09-03T08:12:18;100092.22;;;19.27;36.42
63285;BME280;49409;55.708;37.522;2022-09-03T08:14:43;100103.88;;;19.34;36.67
63285;BME280;49409;55.708;37.522;2022-09-03T08:17:09;100097.13;;;19.13;36.63
63285;BME280;49409;55.708;37.522;2022-09-03T08:19:36;100099.56;;;19.02;37.08
63285;BME280;49409;55.708;37.522;2022-09-03T08:22:02;100109.41;;;19.16;37.21
63285;BME280;49409;55.708;37.522;2022-09-03T08:24:27;100113.34;;;19.28;36.92
63285;BME280;49409;55.708;37.522;2022-09-03T08:26:53;100105.75;;;18.97;37.03
63285;BME280;49409;55.708;37.522;2022-09-03T08:29:21;100115.50;;;19.01;37.32
63285;BME280;49409;55.708;37.522;2022-09-03T08:31:46;100089.88;;;18.85;37.41
63285;BME280;49409;55.708;37.522;2022-09-03T08:34:12;100113.28;;;19.18;37.64
63285;BME280;49409;55.708;37.522;2022-09-03T08:36:39;100098.03;;;19.41;37.11
63285;BME280;49409;55.708;37.522;2022-09-03T08:39:08;100106.13;;;19.58;36.39
63285;BME280;49409;55.708;37.522;2022-09-03T08:47:06;100093.84;;;19.46;35.13
63285;BME280;49409;55.708;37.522;2022-09-03T08:52:36;100088.41;;;19.42;35.72
63285;BME280;49409;55.708;37.522;2022-09-03T08:55:30;100084.81;;;19.33;36.17
63285;BME280;49409;55.708;37.522;2022-09-03T08:58:12;100096.88;;;19.20;36.12
63285;BME280;49409;55.708;37.522;2022-09-03T09:11:57;100099.72;;;18.76;35.63
63285;BME280;49409;55.708;37.522;2022-09-03T09:14:28;100103.72;;;18.75;35.96
63285;BME280;49409;55.708;37.522;2022-09-03T09:17:29;100098.94;;;18.98;35.96
63285;BME280;49409;55.708;37.522;2022-09-03T09:22:48;100050.66;;;19.10;35.04
63285;BME280;49409;55.708;37.522;2022-09-03T09:25:20;100097.13;;;19.54;33.87
63285;BME280;49409;55.708;37.522;2022-09-03T09:28:01;100064.44;;;19.64;33.60
63285;BME280;49409;55.708;37.522;2022-09-03T09:30:29;100087.13;;;19.75;31.70
63285;BME280;49409;55.708;37.522;2022-09-03T09:32:55;100052.91;;;19.43;31.69
63285;BME280;49409;55.708;37.522;2022-09-03T09:35:21;100079.00;;;19.58;31.89
63285;BME280;49409;55.708;37.522;2022-09-03T09:37:55;100084.34;;;19.84;32.98
63285;BME280;49409;55.708;37.522;2022-09-03T09:40:24;100078.00;;;20.02;32.22
63285;BME280;49409;55.708;37.522;2022-09-03T09:42:50;100084.81;;;20.19;31.63
63285;BME280;49409;55.708;37.522;2022-09-03T09:45:23;100077.84;;;20.24;31.23
63285;BME280;49409;55.708;37.522;2022-09-03T09:47:48;100066.50;;;20.28;31.84
63285;BME280;49409;55.708;37.522;2022-09-03T09:50:20;100068.47;;;20.55;30.67
63285;BME280;49409;55.708;37.522;2022-09-03T09:52:46;100068.19;;;20.62;30.99
63285;BME280;49409;55.708;37.522;2022-09-03T09:55:17;100069.41;;;20.70;30.94
63285;BME280;49409;55.708;37.522;2022-09-03T09:57:43;100071.06;;;20.86;30.96
63285;BME280;49409;55.708;37.522;2022-09-03T10:00:12;100065.31;;;20.90;30.96
63285;BME280;49409;55.708;37.522;2022-09-03T10:02:50;100064.91;;;21.15;31.21
63285;BME280;49409;55.708;37.522;2022-09-03T10:10:20;100040.94;;;20.81;29.76
63285;BME280;49409;55.708;37.522;2022-09-03T10:20:30;100077.69;;;19.91;31.12
63285;BME280;49409;55.708;37.522;2022-09-03T10:28:34;100080.88;;;19.61;31.36
63285;BME280;49409;55.708;37.522;2022-09-03T10:33:56;100092.44;;;19.41;31.75
63285;BME280;49409;55.708;37.522;2022-09-03T10:36:28;100043.84;;;19.20;32.36
63285;BME280;49409;55.708;37.522;2022-09-03T10:39:05;100084.88;;;19.51;32.33
63285;BME280;49409;55.708;37.522;2022-09-03T10:41:40;100091.50;;;19.45;31.92
63285;BME280;49409;55.708;37.522;2022-09-03T10:44:27;100079.59;;;19.44;32.34
63285;BME280;49409;55.708;37.522;2022-09-03T10:50:13;100085.56;;;19.24;33.44
63285;BME280;49409;55.708;37.522;2022-09-03T10:55:45;100098.13;;;19.19;35.70
63285;BME280;49409;55.708;37.522;2022-09-03T11:01:10;100090.28;;;19.05;36.49
63285;BME280;49409;55.708;37.522;2022-09-03T11:03:42;100082.22;;;18.98;37.50
63285;BME280;49409;55.708;37.522;2022-09-03T11:06:29;100090.69;;;19.26;36.23
63285;BME280;49409;55.708;37.522;2022-09-03T11:11:46;100092.03;;;19.12;35.08
63285;BME280;49409;55.708;37.522;2022-09-03T11:14:17;100074.38;;;18.83;34.60
63285;BME280;49409;55.708;37.522;2022-09-03T11:16:57;100084.69;;;18.96;35.18
63285;BME280;49409;55.708;37.522;2022-09-03T11:19:33;100066.38;;;18.95;35.10
63285;BME280;49409;55.708;37.522;2022-09-03T11:22:02;100071.56;;;19.15;33.65
63285;BME280;49409;55.708;37.522;2022-09-03T11:24:30;100075.94;;;19.16;34.38
63285;BME280;49409;55.708;37.522;2022-09-03T11:27:32;100085.66;;;19.52;33.91
63285;BME280;49409;55.708;37.522;2022-09-03T11:32:46;100061.22;;;19.25;33.48
63285;BME280;49409;55.708;37.522;2022-09-03T11:40:41;100065.09;;;19.18;33.79
63285;BME280;49409;55.708;37.522;2022-09-03T11:46:08;100026.50;;;19.16;33.76
63285;BME280;49409;55.708;37.522;2022-09-03T11:53:59;100048.91;;;19.53;32.06
63285;BME280;49409;55.708;37.522;2022-09-03T11:56:27;100050.94;;;19.62;32.17
63285;BME280;49409;55.708;37.522;2022-09-03T12:01:39;100049.81;;;19.50;32.03
63285;BME280;49409;55.708;37.522;2022-09-03T12:04:07;100041.28;;;19.45;32.62
63285;BME280;49409;55.708;37.522;2022-09-03T12:09:44;100034.03;;;19.47;32.45
63285;BME280;49409;55.708;37.522;2022-09-03T12:12:59;100017.41;;;19.44;32.91
63285;BME280;49409;55.708;37.522;2022-09-03T12:18:32;100032.53;;;19.83;32.70
63285;BME280;49409;55.708;37.522;2022-09-03T12:26:04;100010.94;;;19.65;32.61
63285;BME280;49409;55.708;37.522;2022-09-03T12:28:35;100015.16;;;19.79;32.36
63285;BME280;49409;55.708;37.522;2022-09-03T12:34:00;99987.38;;;19.75;32.36
63285;BME280;49409;55.708;37.522;2022-09-03T12:36:38;100023.22;;;19.95;32.17
63285;BME280;49409;55.708;37.522;2022-09-03T12:39:24;100010.19;;;19.83;32.26
63285;BME280;49409;55.708;37.522;2022-09-03T12:42:01;100013.84;;;19.52;32.21
63285;BME280;49409;55.708;37.522;2022-09-03T12:49:41;100014.72;;;19.31;33.76
63285;BME280;49409;55.708;37.522;2022-09-03T12:57:22;100009.69;;;18.98;35.89
63285;BME280;49409;55.708;37.522;2022-09-03T12:59:54;99999.59;;;18.91;35.74
63285;BME280;49409;55.708;37.522;2022-09-03T13:02:39;99996.84;;;19.00;35.47
63285;BME280;49409;55.708;37.522;2022-09-03T13:05:13;99988.66;;;19.06;35.11
63285;BME280;49409;55.708;37.522;2022-09-03T13:07:48;99998.28;;;19.14;34.37
63285;BME280;49409;55.708;37.522;2022-09-03T13:10:26;99999.84;;;19.25;34.50
63285;BME280;49409;55.708;37.522;2022-09-03T13:13:01;99993.16;;;19.13;34.56
63285;BME280;49409;55.708;37.522;2022-09-03T13:15:29;99994.22;;;19.06;34.96
63285;BME280;49409;55.708;37.522;2022-09-03T13:18:07;99988.50;;;19.10;34.62
63285;BME280;49409;55.708;37.522;2022-09-03T13:24:22;99997.41;;;19.36;34.72
63285;BME280;49409;55.708;37.522;2022-09-03T13:30:11;99988.53;;;19.28;34.19
63285;BME280;49409;55.708;37.522;2022-09-03T13:35:43;99953.34;;;19.12;33.70
63285;BME280;49409;55.708;37.522;2022-09-03T13:38:34;99979.41;;;19.37;33.38
63285;BME280;49409;55.708;37.522;2022-09-03T13:41:05;99985.59;;;19.32;33.81
63285;BME280;49409;55.708;37.522;2022-09-03T13:44:03;99982.41;;;19.61;33.87
63285;BME280;49409;55.708;37.522;2022-09-03T13:46:42;99967.94;;;19.62;33.73
63285;BME280;49409;55.708;37.522;2022-09-03T13:52:01;99930.44;;;19.45;33.43
63285;BME280;49409;55.708;37.522;2022-09-03T13:54:38;99961.44;;;19.66;33.61
63285;BME280;49409;55.708;37.522;2022-09-03T14:00:10;99961.44;;;19.66;32.63
63285;BME280;49409;55.708;37.522;2022-09-03T14:05:43;99956.38;;;19.73;32.59
63285;BME280;49409;55.708;37.522;2022-09-03T14:16:37;99947.47;;;20.12;32.64
63285;BME280;49409;55.708;37.522;2022-09-03T14:21:58;99937.25;;;19.99;32.40
63285;BME280;49409;55.708;37.522;2022-09-03T14:27:09;99932.31;;;19.85;32.83
63285;BME280;49409;55.708;37.522;2022-09-03T14:29:35;99936.03;;;19.91;33.13
63285;BME280;49409;55.708;37.522;2022-09-03T14:46:02;99931.97;;;19.65;33.11
63285;BME280;49409;55.708;37.522;2022-09-03T14:49:02;99935.88;;;19.76;33.24
63285;BME280;49409;55.708;37.522;2022-09-03T14:52:01;99930.28;;;19.86;33.04
63285;BME280;49409;55.708;37.522;2022-09-03T15:06:36;99909.00;;;19.60;33.65
63285;BME280;49409;55.708;37.522;2022-09-03T15:09:17;99927.94;;;19.66;33.59
63285;BME280;49409;55.708;37.522;2022-09-03T15:12:22;99930.91;;;19.80;33.66
63285;BME280;49409;55.708;37.522;2022-09-03T15:14:53;99934.75;;;19.65;33.57
63285;BME280;49409;55.708;37.522;2022-09-03T15:23:52;99916.78;;;19.47;33.74
63285;BME280;49409;55.708;37.522;2022-09-03T15:26:46;99908.41;;;19.56;33.84
63285;BME280;49409;55.708;37.522;2022-09-03T15:37:28;99917.69;;;19.35;34.58
63285;BME280;49409;55.708;37.522;2022-09-03T15:48:31;99925.41;;;19.03;35.92
63285;BME280;49409;55.708;37.522;2022-09-03T15:51:39;99933.19;;;19.08;35.63
63285;BME280;49409;55.708;37.522;2022-09-03T15:54:22;99929.72;;;18.95;35.80
63285;BME280;49409;55.708;37.522;2022-09-03T16:05:18;99926.09;;;18.35;37.65
63285;BME280;49409;55.708;37.522;2022-09-03T16:10:35;99924.94;;;18.23;37.91
63285;BME280;49409;55.708;37.522;2022-09-03T16:13:23;99931.25;;;18.15;38.05
63285;BME280;49409;55.708;37.522;2022-09-03T16:21:10;99935.94;;;17.83;38.95
63285;BME280;49409;55.708;37.522;2022-09-03T16:23:51;99932.59;;;17.66;39.26
63285;BME280;49409;55.708;37.522;2022-09-03T16:26:28;99935.72;;;17.55;39.80
63285;BME280;49409;55.708;37.522;2022-09-03T16:35:42;99923.63;;;17.14;40.89
63285;BME280;49409;55.708;37.522;2022-09-03T16:40:41;99940.53;;;17.07;40.83
63285;BME280;49409;55.708;37.522;2022-09-03T16:51:43;99953.44;;;16.75;41.85
63285;BME280;49409;55.708;37.522;2022-09-03T16:57:40;99960.69;;;16.73;42.53
63285;BME280;49409;55.708;37.522;2022-09-03T17:00:20;99957.09;;;16.72;43.00
63285;BME280;49409;55.708;37.522;2022-09-03T17:20:08;99949.34;;;16.67;43.88
63285;BME280;49409;55.708;37.522;2022-09-03T17:25:37;99955.22;;;16.56;44.54
63285;BME280;49409;55.708;37.522;2022-09-03T17:33:54;99955.13;;;16.85;43.15
63285;BME280;49409;55.708;37.522;2022-09-03T17:36:23;99949.25;;;16.83;43.64
63285;BME280;49409;55.708;37.522;2022-09-03T17:40:06;99965.34;;;17.14;42.65
63285;BME280;49409;55.708;37.522;2022-09-03T17:53:33;99962.94;;;16.91;42.51
63285;BME280;49409;55.708;37.522;2022-09-03T17:56:06;99944.94;;;16.82;42.07
63285;BME280;49409;55.708;37.522;2022-09-03T17:58:47;99951.81;;;16.91;42.16
63285;BME280;49409;55.708;37.522;2022-09-03T18:01:25;99966.34;;;17.08;42.08
63285;BME280;49409;55.708;37.522;2022-09-03T18:03:58;99958.03;;;16.95;42.25
63285;BME280;49409;55.708;37.522;2022-09-03T18:12:03;99914.78;;;16.81;42.22
63285;BME280;49409;55.708;37.522;2022-09-03T18:14:42;99953.13;;;16.99;42.23
63285;BME280;49409;55.708;37.522;2022-09-03T18:17:32;99943.78;;;17.05;42.22
63285;BME280;49409;55.708;37.522;2022-09-03T18:20:10;99942.66;;;17.03;42.16
63285;BME280;49409;55.708;37.522;2022-09-03T18:23:01;99956.03;;;17.08;42.49
63285;BME280;49409;55.708;37.522;2022-09-03T18:25:50;99963.88;;;17.10;42.65
63285;BME280;49409;55.708;37.522;2022-09-03T18:31:24;99959.56;;;16.96;43.69
63285;BME280;49409;55.708;37.522;2022-09-03T18:34:08;99950.03;;;16.84;43.64